Time;durP1;ratioP1;P1;durP2;ratioP2;P2;SDS_P1;SDS_P2;PMS_P1;PMS_P2;Temp;Humidity;BMP_temperature;BMP_pressure;BME280_temperature;BME280_humidity;BME280_pressure;Samples;Min_cycle;Max_cycle;Signal;HPM_P1;HPM_P2
2022/08/26 00:00:11;;;;;;;158.90;23.80;;;;;;;21.56;63.70;98265.66;4166899;28;20223;-53
2022/08/26 00:02:15;;;;;;;373.48;37.33;;;;;;;21.56;63.79;98266.50;4170744;28;20706;-54
2022/08/26 00:04:23;;;;;;;275.33;39.15;;;;;;;21.54;63.79;98267.94;4168647;28;20207;-53
2022/08/26 00:06:26;;;;;;;431.98;56.33;;;;;;;21.54;63.70;98267.94;4177429;28;20227;-53
2022/08/26 00:08:28;;;;;;;316.83;57.45;;;;;;;21.52;63.82;98265.50;4163365;28;20321;-52
2022/08/26 00:10:29;;;;;;;244.52;38.83;;;;;;;21.52;63.86;98265.50;4193363;28;20206;-53
2022/08/26 00:12:31;;;;;;;360.48;62.63;;;;;;;21.52;63.73;98267.47;4163646;28;20199;-53
2022/08/26 00:14:38;;;;;;;225.30;43.10;;;;;;;21.51;64.07;98268.63;4165211;28;20208;-52
2022/08/26 00:16:40;;;;;;;411.45;61.28;;;;;;;21.44;64.12;98265.50;4165390;28;20219;-52
2022/08/26 00:18:49;;;;;;;296.90;44.97;;;;;;;21.40;64.01;98268.13;4195355;28;20194;-52
2022/08/26 00:20:50;;;;;;;426.63;67.57;;;;;;;21.36;64.37;98269.06;4179387;28;20199;-52
2022/08/26 00:22:53;;;;;;;254.23;46.55;;;;;;;21.33;64.35;98261.38;4196864;28;20721;-51
2022/08/26 00:24:54;;;;;;;231.73;42.47;;;;;;;21.31;64.49;98266.47;4165458;28;20208;-52
2022/08/26 00:26:56;;;;;;;192.93;43.75;;;;;;;21.29;64.61;98265.97;4146328;28;20278;-53
2022/08/26 00:28:58;;;;;;;274.33;45.17;;;;;;;21.27;64.67;98268.25;4177037;28;20208;-52
2022/08/26 00:31:00;;;;;;;223.82;27.55;;;;;;;21.23;64.83;98270.06;4162122;28;20302;-53
2022/08/26 00:33:04;;;;;;;299.48;49.05;;;;;;;21.21;64.63;98267.59;4162621;28;20298;-52
2022/08/26 00:35:09;;;;;;;186.23;20.48;;;;;;;21.13;65.28;98257.28;4167132;28;20289;-53
2022/08/26 00:37:10;;;;;;;249.65;34.67;;;;;;;21.11;65.40;98261.53;4165445;28;20273;-52
2022/08/26 00:39:16;;;;;;;298.52;39.58;;;;;;;21.09;65.36;98255.44;4193706;28;20259;-52
2022/08/26 00:41:19;;;;;;;218.65;33.83;;;;;;;21.00;65.53;98255.44;4198088;28;20198;-52
2022/08/26 00:43:21;;;;;;;255.57;39.63;;;;;;;21.01;65.60;98256.25;4183346;28;20263;-52
2022/08/26 00:45:24;;;;;;;380.08;61.65;;;;;;;21.00;65.20;98257.38;4196450;28;20214;-52
2022/08/26 00:47:30;;;;;;;238.75;43.88;;;;;;;20.99;65.32;98251.00;4162717;28;20738;-53
2022/08/26 00:49:38;;;;;;;165.20;34.78;;;;;;;20.99;65.33;98255.75;4168790;28;20207;-52
2022/08/26 00:51:46;;;;;;;381.92;60.80;;;;;;;20.97;65.46;98246.91;4180375;28;20214;-54
2022/08/26 00:53:54;;;;;;;434.38;64.93;;;;;;;20.97;65.44;98258.06;4194016;28;20462;-53
2022/08/26 00:56:03;;;;;;;369.33;56.67;;;;;;;20.95;65.09;98254.75;4163709;28;20214;-53
2022/08/26 00:58:07;;;;;;;245.95;34.85;;;;;;;20.95;65.20;98252.81;4161717;28;20227;-54
2022/08/26 01:00:13;;;;;;;327.30;42.58;;;;;;;20.94;65.18;98253.13;4162561;28;20207;-53
2022/08/26 01:02:16;;;;;;;379.40;45.13;;;;;;;20.92;65.39;98256.22;4179723;28;20735;-54
2022/08/26 01:04:22;;;;;;;481.85;74.00;;;;;;;20.92;65.42;98255.41;4165035;28;20661;-53
2022/08/26 01:06:30;;;;;;;229.55;22.60;;;;;;;20.91;65.26;98253.78;4195364;28;20226;-52
2022/08/26 01:08:32;;;;;;;314.30;55.90;;;;;;;20.90;65.45;98264.06;4180377;28;20211;-54
2022/08/26 01:10:34;;;;;;;329.50;52.05;;;;;;;20.83;65.63;98251.72;4199726;28;20202;-53
2022/08/26 01:12:51;;;;;;;417.25;43.65;;;;;;;20.79;65.81;98250.75;4171871;28;20207;-52
2022/08/26 01:14:53;;;;;;;507.02;91.00;;;;;;;20.74;65.90;98242.56;4166705;28;20211;-54
2022/08/26 01:16:54;;;;;;;367.40;53.42;;;;;;;20.70;66.19;98253.50;4199578;28;20227;-53
2022/08/26 01:19:02;;;;;;;266.23;39.65;;;;;;;20.66;66.18;98248.91;4202364;28;20412;-53
2022/08/26 01:21:06;;;;;;;448.75;74.13;;;;;;;20.65;66.33;98247.28;4172564;28;20198;-53
2022/08/26 01:23:10;;;;;;;242.68;47.92;;;;;;;20.64;66.20;98252.00;4181114;28;20398;-53
2022/08/26 01:25:13;;;;;;;364.23;53.00;;;;;;;20.62;66.29;98250.69;4170503;28;20297;-53
2022/08/26 01:27:17;;;;;;;562.80;64.80;;;;;;;20.61;66.33;98261.00;4171211;28;20689;-53
2022/08/26 01:29:19;;;;;;;237.93;44.85;;;;;;;20.61;66.24;98265.72;4183269;28;20195;-54
2022/08/26 01:31:24;;;;;;;342.65;55.05;;;;;;;20.59;66.49;98262.47;4201279;28;20215;-53
2022/08/26 01:33:36;;;;;;;377.35;62.97;;;;;;;20.59;66.58;98256.91;4202950;28;20211;-54
2022/08/26 01:35:46;;;;;;;402.27;50.97;;;;;;;20.57;66.49;98259.19;4184545;28;20209;-52
2022/08/26 01:37:51;;;;;;;466.50;58.65;;;;;;;20.54;66.50;98254.25;4201923;28;20723;-53
2022/08/26 01:39:55;;;;;;;252.65;58.92;;;;;;;20.52;66.64;98267.66;4200777;28;20658;-52
2022/08/26 01:41:58;;;;;;;383.65;69.30;;;;;;;20.49;66.40;98260.78;4197550;28;20207;-53
2022/08/26 01:44:06;;;;;;;312.83;44.90;;;;;;;20.44;66.59;98260.91;4170698;28;20203;-52
2022/08/26 01:46:11;;;;;;;335.63;59.08;;;;;;;20.39;66.93;98260.25;4168490;28;20219;-53
2022/08/26 01:48:16;;;;;;;272.60;44.13;;;;;;;20.34;67.27;98260.38;4204693;28;20581;-52
2022/08/26 01:50:29;;;;;;;385.00;53.75;;;;;;;20.23;67.42;98259.81;4186662;28;20719;-53
2022/08/26 01:52:32;;;;;;;213.45;34.80;;;;;;;20.17;67.47;98261.09;4176648;28;20241;-53
2022/08/26 01:54:34;;;;;;;398.95;42.42;;;;;;;20.14;68.08;98260.91;4202128;28;20210;-52
2022/08/26 01:56:36;;;;;;;498.10;68.03;;;;;;;20.13;67.89;98259.28;4196939;28;20940;-53
2022/08/26 01:58:48;;;;;;;340.65;61.55;;;;;;;20.16;67.86;98275.31;4173441;28;20261;-53
2022/08/26 02:00:52;;;;;;;300.55;48.78;;;;;;;20.18;67.72;98273.03;4171042;28;20311;-52
2022/08/26 02:03:16;;;;;;;341.08;49.17;;;;;;;20.17;67.66;98276.97;4186234;28;20704;-52
2022/08/26 02:05:20;;;;;;;359.90;56.85;;;;;;;20.13;67.50;98276.78;4169516;28;20243;-53
2022/08/26 02:07:23;;;;;;;375.17;70.20;;;;;;;20.11;67.58;98284.59;4174758;28;20269;-53
2022/08/26 02:09:27;;;;;;;222.88;73.10;;;;;;;20.08;67.88;98289.97;4197948;28;20206;-53
2022/08/26 02:11:32;;;;;;;463.90;61.78;;;;;;;19.99;67.96;98280.72;4181200;28;20764;-53
2022/08/26 02:16:54;;;;;;;368.92;66.43;;;;;;;19.90;68.32;98277.09;4163768;28;20234;-53
2022/08/26 02:18:57;;;;;;;292.30;45.15;;;;;;;19.93;68.20;98287.53;4174514;28;20212;-53
2022/08/26 02:20:59;;;;;;;456.58;73.72;;;;;;;19.96;68.39;98281.34;4166183;28;20261;-53
2022/08/26 02:23:01;;;;;;;271.27;60.33;;;;;;;19.92;68.34;98274.81;4167877;28;20208;-52
2022/08/26 02:25:24;;;;;;;342.77;47.95;;;;;;;19.85;68.67;98279.97;4200834;28;20226;-52
2022/08/26 02:27:31;;;;;;;334.08;47.33;;;;;;;19.81;68.92;98278.94;4169320;28;20767;-52
2022/08/26 02:29:37;;;;;;;306.70;55.05;;;;;;;19.75;69.39;98286.59;4167078;28;20216;-52
2022/08/26 02:31:38;;;;;;;241.75;35.10;;;;;;;19.76;69.01;98281.84;4182998;28;20657;-52
2022/08/26 02:33:41;;;;;;;328.48;57.58;;;;;;;19.75;68.97;98281.03;4184082;28;20207;-52
2022/08/26 02:35:44;;;;;;;326.10;52.22;;;;;;;19.76;68.72;98284.63;4167124;28;20311;-53
2022/08/26 02:37:48;;;;;;;355.83;67.97;;;;;;;19.77;68.67;98289.06;4202856;28;20219;-52
2022/08/26 02:39:50;;;;;;;608.90;75.97;;;;;;;19.79;68.81;98284.00;4167839;28;20576;-52
2022/08/26 02:41:52;;;;;;;316.15;39.63;;;;;;;19.73;68.99;98290.81;4172245;28;20291;-53
2022/08/26 02:43:54;;;;;;;320.00;42.50;;;;;;;19.72;69.02;98286.41;4169470;28;20270;-53
2022/08/26 02:45:56;;;;;;;152.57;25.67;;;;;;;19.71;69.16;98293.09;4171889;28;22137;-52
2022/08/26 02:47:59;;;;;;;234.65;49.88;;;;;;;19.70;69.23;98288.66;4167676;28;20317;-51
2022/08/26 02:50:01;;;;;;;221.30;47.88;;;;;;;19.66;69.32;98287.66;4201186;28;20664;-53
2022/08/26 02:52:02;;;;;;;372.02;60.13;;;;;;;19.62;69.46;98286.63;4185581;28;20763;-53
2022/08/26 02:54:05;;;;;;;174.60;30.42;;;;;;;19.60;69.37;98286.97;4190390;28;20211;-51
2022/08/26 02:56:07;;;;;;;588.53;76.80;;;;;;;19.60;69.26;98288.91;4170079;28;20298;-53
2022/08/26 02:58:10;;;;;;;448.65;81.72;;;;;;;19.61;69.25;98290.56;4201235;28;20230;-53
2022/08/26 03:00:14;;;;;;;341.40;72.82;;;;;;;19.62;69.36;98283.84;4168061;28;20259;-52
2022/08/26 03:02:16;;;;;;;376.83;51.13;;;;;;;19.60;69.16;98284.19;4181742;28;20212;-53
2022/08/26 03:04:18;;;;;;;437.35;63.65;;;;;;;19.59;69.46;98287.28;4168831;28;20209;-53
2022/08/26 03:06:20;;;;;;;276.10;49.97;;;;;;;19.49;69.70;98281.94;4182653;28;20262;-52
2022/08/26 03:08:22;;;;;;;342.63;59.47;;;;;;;19.41;69.95;98280.75;4169398;28;20232;-53
2022/08/26 03:10:26;;;;;;;347.80;52.85;;;;;;;19.37;70.26;98281.69;4169570;28;20235;-52
2022/08/26 03:12:28;;;;;;;194.38;43.47;;;;;;;19.35;70.28;98281.16;4168670;28;20752;-51
2022/08/26 03:14:30;;;;;;;251.82;51.78;;;;;;;19.33;70.13;98289.81;4169810;28;20257;-53
2022/08/26 03:16:33;;;;;;;388.55;61.33;;;;;;;19.33;70.11;98281.50;4200448;28;20198;-53
2022/08/26 03:18:35;;;;;;;215.63;43.20;;;;;;;19.32;70.07;98281.81;4182463;28;20211;-52
2022/08/26 03:20:37;;;;;;;464.52;70.93;;;;;;;19.30;69.74;98281.28;4182516;28;20301;-52
2022/08/26 03:22:39;;;;;;;401.45;54.80;;;;;;;19.28;69.93;98280.78;4166606;28;20569;-53
2022/08/26 03:24:41;;;;;;;486.23;67.13;;;;;;;19.32;69.86;98281.81;4169382;28;20235;-53
2022/08/26 03:26:46;;;;;;;389.15;72.25;;;;;;;19.33;70.09;98283.44;4182988;28;20223;-52
2022/08/26 03:31:15;;;;;;;553.67;83.32;;;;;;;19.29;70.30;98282.41;4170683;28;20224;-53
2022/08/26 03:33:17;;;;;;;370.58;66.43;;;;;;;19.23;70.45;98272.56;4200093;28;20302;-52
2022/08/26 03:35:19;;;;;;;390.35;48.08;;;;;;;19.18;70.62;98267.91;4166728;28;20673;-52
2022/08/26 03:37:22;;;;;;;311.67;51.40;;;;;;;19.16;70.84;98269.34;4199597;28;20257;-53
2022/08/26 03:39:24;;;;;;;461.38;73.25;;;;;;;19.14;71.07;98274.41;4198102;28;20199;-52
2022/08/26 03:41:26;;;;;;;396.27;75.05;;;;;;;19.08;71.14;98256.22;4169504;28;20587;-52
2022/08/26 03:43:28;;;;;;;336.52;61.08;;;;;;;19.10;71.14;98263.09;4167679;28;20213;-53
2022/08/26 03:45:29;;;;;;;402.63;65.38;;;;;;;19.08;71.08;98270.09;4170234;28;20939;-51
2022/08/26 03:47:32;;;;;;;354.17;43.42;;;;;;;19.08;70.99;98265.38;4166998;28;20229;-52
2022/08/26 03:49:34;;;;;;;443.35;53.63;;;;;;;19.04;71.17;98269.91;4199044;28;20210;-52
2022/08/26 03:51:37;;;;;;;457.23;79.68;;;;;;;19.03;71.21;98261.88;4165492;28;20208;-52
2022/08/26 03:53:39;;;;;;;335.30;62.67;;;;;;;19.01;71.20;98269.69;4199204;28;20226;-51
2022/08/26 03:55:41;;;;;;;333.15;63.80;;;;;;;18.98;71.02;98262.00;4168067;28;20200;-52
2022/08/26 03:57:43;;;;;;;298.98;54.42;;;;;;;18.98;70.72;98264.78;4172664;28;20232;-52
2022/08/26 03:59:45;;;;;;;259.88;49.70;;;;;;;18.99;71.20;98271.97;4168943;28;20680;-53
2022/08/26 04:01:48;;;;;;;451.42;66.50;;;;;;;18.97;71.38;98272.28;4181338;28;20620;-52
2022/08/26 04:03:56;;;;;;;327.75;47.50;;;;;;;19.06;71.44;98275.94;4166467;28;20208;-53
2022/08/26 04:06:00;;;;;;;297.70;59.30;;;;;;;19.00;71.28;98279.16;4198975;28;20322;-52
2022/08/26 04:08:04;;;;;;;293.17;44.95;;;;;;;18.97;71.39;98274.25;4197490;28;20238;-52
2022/08/26 04:10:06;;;;;;;421.33;62.17;;;;;;;18.97;71.85;98274.25;4198541;28;20212;-52
2022/08/26 04:12:10;;;;;;;433.40;75.63;;;;;;;18.97;71.74;98279.78;4167160;28;20208;-53
2022/08/26 04:14:15;;;;;;;190.15;40.03;;;;;;;18.88;72.15;98270.53;4174261;28;20200;-53
2022/08/26 04:16:20;;;;;;;484.00;67.28;;;;;;;18.82;72.34;98266.22;4180147;28;20207;-52
2022/08/26 04:18:24;;;;;;;384.13;64.53;;;;;;;18.84;72.34;98270.31;4167863;28;20202;-51
2022/08/26 04:20:33;;;;;;;132.65;24.73;;;;;;;18.56;73.48;98267.84;4168682;28;20329;-52
2022/08/26 04:22:34;;;;;;;552.20;98.07;;;;;;;18.50;73.68;98263.53;4198856;28;20242;-52
2022/08/26 04:24:38;;;;;;;468.60;66.45;;;;;;;18.52;73.19;98272.41;4198482;28;20202;-53
2022/08/26 04:26:41;;;;;;;433.65;70.10;;;;;;;18.55;72.79;98272.59;4170265;28;20270;-52
2022/08/26 04:28:45;;;;;;;539.42;86.10;;;;;;;18.60;72.69;98269.75;4179532;28;20224;-53
2022/08/26 04:30:51;;;;;;;524.28;77.13;;;;;;;18.65;72.70;98266.03;4166715;28;20208;-53
2022/08/26 04:32:52;;;;;;;510.85;63.35;;;;;;;18.65;72.41;98274.34;4196536;28;20289;-52
2022/08/26 04:34:55;;;;;;;420.45;60.10;;;;;;;18.66;72.41;98271.25;4164753;28;21371;-52
2022/08/26 04:36:58;;;;;;;194.32;44.70;;;;;;;18.66;72.63;98276.78;4163551;28;20228;-52
2022/08/26 04:39:01;;;;;;;235.82;27.77;;;;;;;18.63;72.90;98271.03;4181649;28;20215;-52
2022/08/26 04:41:06;;;;;;;163.48;26.60;;;;;;;18.58;72.92;98266.44;4202572;28;20202;-51
2022/08/26 04:43:16;;;;;;;558.10;71.88;;;;;;;18.50;73.27;98269.09;4166676;28;20204;-53
2022/08/26 04:45:18;;;;;;;342.95;54.10;;;;;;;18.49;73.55;98268.28;4168234;28;20713;-52
2022/08/26 04:47:23;;;;;;;571.42;76.53;;;;;;;18.40;73.86;98270.13;4170057;28;20236;-51
2022/08/26 04:49:31;;;;;;;302.35;62.88;;;;;;;18.41;73.79;98270.94;4172915;28;20604;-52
2022/08/26 04:51:36;;;;;;;314.13;61.70;;;;;;;18.44;73.67;98270.34;4168448;28;20253;-52
2022/08/26 04:53:38;;;;;;;646.33;96.63;;;;;;;18.48;73.37;98271.34;4197305;28;20238;-52
2022/08/26 04:55:41;;;;;;;327.48;63.53;;;;;;;18.53;73.26;98271.25;4201238;28;20232;-52
2022/08/26 04:57:46;;;;;;;338.55;70.30;;;;;;;18.54;72.95;98276.50;4196833;28;20234;-52
2022/08/26 04:59:47;;;;;;;566.35;82.45;;;;;;;18.55;72.87;98280.91;4168101;28;20481;-51
2022/08/26 05:01:52;;;;;;;403.88;54.88;;;;;;;18.57;72.75;98280.63;4196290;28;20223;-53
2022/08/26 05:03:54;;;;;;;328.17;54.53;;;;;;;18.57;72.54;98286.97;4182417;28;20245;-53
2022/08/26 05:05:56;;;;;;;508.95;73.72;;;;;;;18.57;72.68;98286.16;4169484;28;20841;-52
2022/08/26 05:07:57;;;;;;;284.08;44.67;;;;;;;18.56;72.80;98290.03;4165684;28;20322;-53
2022/08/26 05:10:00;;;;;;;479.98;78.90;;;;;;;18.58;72.70;98293.34;4167533;28;20258;-52
2022/08/26 05:12:04;;;;;;;270.70;42.13;;;;;;;18.57;72.63;98298.06;4151816;28;20217;-52
2022/08/26 05:14:05;;;;;;;469.83;76.90;;;;;;;18.59;72.52;98289.44;4166305;28;20208;-51
2022/08/26 05:16:10;;;;;;;325.92;73.88;;;;;;;18.59;72.65;98295.78;4185716;28;20243;-53
2022/08/26 05:18:15;;;;;;;376.88;83.68;;;;;;;18.60;72.45;98297.44;4201086;28;20766;-51
2022/08/26 05:20:16;;;;;;;365.55;66.95;;;;;;;18.62;72.31;98289.66;4168367;28;20684;-52
2022/08/26 05:22:25;;;;;;;283.67;45.03;;;;;;;18.65;72.30;98294.56;4168498;28;20686;-52
2022/08/26 05:24:27;;;;;;;352.88;50.83;;;;;;;18.68;72.23;98295.91;4167361;28;20546;-52
2022/08/26 05:26:31;;;;;;;261.85;68.15;;;;;;;18.69;71.85;98297.53;4199758;28;20206;-53
2022/08/26 05:28:33;;;;;;;445.13;64.25;;;;;;;18.69;72.37;98306.69;4170866;28;20303;-52
2022/08/26 05:30:36;;;;;;;333.02;62.97;;;;;;;18.75;72.66;98299.09;4200005;28;20210;-51
2022/08/26 05:32:39;;;;;;;412.50;55.22;;;;;;;18.74;73.36;98303.00;4174165;28;20219;-52
2022/08/26 05:34:40;;;;;;;339.70;58.92;;;;;;;18.80;73.54;98308.13;4172672;28;20578;-52
2022/08/26 05:36:43;;;;;;;323.30;59.58;;;;;;;18.82;73.65;98300.31;4199427;28;20700;-52
2022/08/26 05:38:45;;;;;;;287.02;55.47;;;;;;;18.87;73.70;98310.50;4166851;28;20208;-52
2022/08/26 05:40:49;;;;;;;237.23;44.22;;;;;;;18.89;73.41;98302.66;4170842;28;20242;-52
2022/08/26 05:42:53;;;;;;;337.83;47.63;;;;;;;18.83;73.68;98310.28;4172224;28;20201;-51
2022/08/26 05:44:55;;;;;;;359.85;58.80;;;;;;;18.86;73.75;98306.88;4169532;28;20230;-52
2022/08/26 05:46:57;;;;;;;497.17;94.60;;;;;;;18.88;73.78;98309.34;4167923;28;20291;-52
2022/08/26 05:48:59;;;;;;;533.70;85.72;;;;;;;19.11;73.78;98313.88;4170716;28;20239;-52
2022/08/26 05:51:04;;;;;;;543.65;96.28;;;;;;;19.21;73.26;98316.44;4196768;28;20734;-53
2022/08/26 05:53:07;;;;;;;391.95;65.32;;;;;;;19.52;73.32;98320.19;4166341;28;20233;-52
2022/08/26 05:55:10;;;;;;;516.30;80.88;;;;;;;19.79;72.36;98325.66;4185320;28;20688;-52
2022/08/26 05:57:14;;;;;;;475.98;62.72;;;;;;;20.01;72.10;98325.69;4166435;28;20235;-52
2022/08/26 05:59:16;;;;;;;578.47;75.97;;;;;;;19.93;70.84;98326.44;4180266;28;20287;-53
2022/08/26 06:01:26;;;;;;;691.20;91.47;;;;;;;20.21;70.77;98330.75;4165664;28;20222;-52
2022/08/26 06:03:28;;;;;;;316.38;67.13;;;;;;;20.50;70.63;98320.00;4200355;28;20665;-52
2022/08/26 06:05:30;;;;;;;450.42;65.95;;;;;;;20.71;69.53;98326.66;4200712;28;20206;-52
2022/08/26 06:09:59;;;;;;;451.23;85.45;;;;;;;21.02;68.29;98327.44;4168742;28;21002;-52
2022/08/26 06:12:21;;;;;;;440.65;58.28;;;;;;;21.14;68.01;98330.44;4174691;28;20196;-52
2022/08/26 06:14:24;;;;;;;246.25;49.58;;;;;;;21.19;67.58;98338.66;4185889;28;20261;-52
2022/08/26 06:16:27;;;;;;;290.95;50.42;;;;;;;21.33;67.62;98328.22;4200884;28;20207;-52
2022/08/26 06:18:33;;;;;;;404.25;80.95;;;;;;;21.51;67.56;98338.25;4174676;28;20199;-53
2022/08/26 06:20:36;;;;;;;217.13;46.55;;;;;;;21.76;66.00;98331.91;4199234;28;20215;-52
2022/08/26 06:27:19;;;;;;;350.90;52.17;;;;;;;22.44;63.59;98320.75;4163502;28;20269;-51
2022/08/26 06:29:24;;;;;;;359.98;67.82;;;;;;;22.55;63.80;98322.84;4198245;28;20223;-52
2022/08/26 06:31:26;;;;;;;439.45;86.03;;;;;;;22.63;62.90;98318.41;4166894;28;20266;-51
2022/08/26 06:33:30;;;;;;;233.30;36.50;;;;;;;22.60;62.98;98331.03;4199709;28;20244;-53
2022/08/26 06:35:40;;;;;;;352.67;43.72;;;;;;;22.35;62.98;98328.25;4201833;28;20297;-53
2022/08/26 06:37:42;;;;;;;283.48;36.58;;;;;;;21.98;63.09;98327.00;4198298;28;20265;-52
2022/08/26 06:39:44;;;;;;;369.42;83.63;;;;;;;22.03;63.60;98332.41;4175525;28;20231;-52
2022/08/26 06:41:46;;;;;;;338.95;52.53;;;;;;;22.32;63.40;98326.16;4199590;28;20248;-52
2022/08/26 06:43:49;;;;;;;405.50;51.88;;;;;;;22.48;62.41;98332.88;4202345;28;20273;-51
2022/08/26 06:45:58;;;;;;;221.93;33.03;;;;;;;22.50;62.57;98336.16;4166680;28;20606;-51
2022/08/26 06:48:01;;;;;;;251.80;49.38;;;;;;;23.05;62.87;98325.78;4173469;28;20234;-52
2022/08/26 06:50:02;;;;;;;317.48;37.65;;;;;;;23.40;63.28;98335.66;4200603;28;20213;-51
2022/08/26 06:52:04;;;;;;;470.42;63.20;;;;;;;23.45;61.37;98335.47;4197085;28;20202;-52
2022/08/26 06:54:07;;;;;;;295.85;36.90;;;;;;;23.88;61.45;98330.41;4195789;28;20214;-52
2022/08/26 06:56:11;;;;;;;366.73;66.72;;;;;;;23.89;59.91;98330.09;4195389;28;20284;-54
2022/08/26 06:58:13;;;;;;;277.33;45.17;;;;;;;24.14;60.82;98338.25;4166279;28;20249;-50
2022/08/26 07:00:17;;;;;;;223.90;38.78;;;;;;;24.22;59.35;98322.56;4182850;28;20226;-53
2022/08/26 07:02:20;;;;;;;225.45;40.58;;;;;;;24.25;58.49;98333.06;4196708;28;20240;-52
2022/08/26 07:04:23;;;;;;;213.20;28.27;;;;;;;24.04;58.83;98330.28;4198458;28;20629;-53
2022/08/26 07:06:29;;;;;;;315.88;51.63;;;;;;;24.60;58.48;98320.41;4199166;28;20234;-51
2022/08/26 07:08:30;;;;;;;201.63;32.78;;;;;;;24.99;56.63;98319.78;4195401;28;20214;-54
2022/08/26 07:10:38;;;;;;;148.23;25.60;;;;;;;25.13;56.63;98318.25;4164791;28;20318;-58
2022/08/26 07:12:40;;;;;;;232.10;31.95;;;;;;;25.15;56.05;98324.34;4196775;28;20286;-52
2022/08/26 07:14:47;;;;;;;208.32;33.90;;;;;;;25.24;56.02;98322.28;4166900;28;20196;-52
2022/08/26 07:16:49;;;;;;;213.85;22.02;;;;;;;25.58;55.21;98333.00;4168213;28;20289;-51
2022/08/26 07:18:52;;;;;;;354.40;38.90;;;;;;;25.83;54.44;98323.38;4199263;28;20213;-54
2022/08/26 07:20:54;;;;;;;299.55;33.38;;;;;;;25.94;54.96;98324.53;4172582;28;20253;-52
2022/08/26 07:22:57;;;;;;;390.75;56.13;;;;;;;25.54;54.51;98320.84;4198655;28;20615;-52
2022/08/26 07:24:59;;;;;;;347.17;29.88;;;;;;;25.99;53.79;98327.09;4172168;28;20210;-53
2022/08/26 07:27:03;;;;;;;376.30;53.78;;;;;;;26.14;53.99;98323.53;4161378;28;20595;-52
2022/08/26 07:29:06;;;;;;;377.83;59.67;;;;;;;26.55;52.80;98320.38;4198617;28;20677;-53
2022/08/26 07:31:10;;;;;;;220.82;34.25;;;;;;;26.76;52.36;98325.75;4164650;28;20237;-53
2022/08/26 07:33:12;;;;;;;159.38;28.70;;;;;;;26.65;52.55;98328.28;4195454;28;20198;-52
2022/08/26 07:35:14;;;;;;;191.98;29.40;;;;;;;26.73;52.91;98329.28;4181832;28;20207;-52
2022/08/26 07:37:16;;;;;;;412.70;57.33;;;;;;;26.70;52.52;98330.84;4166530;28;20642;-52
2022/08/26 07:39:19;;;;;;;278.63;30.70;;;;;;;26.84;52.29;98324.75;4169763;28;20203;-52
2022/08/26 07:41:23;;;;;;;328.10;42.55;;;;;;;26.54;51.45;98327.19;4161488;28;20250;-52
2022/08/26 07:43:24;;;;;;;230.77;44.47;;;;;;;26.42;52.38;98330.00;4166393;28;20231;-51
2022/08/26 07:45:29;;;;;;;292.08;32.50;;;;;;;27.06;51.41;98329.78;4166377;28;20243;-52
2022/08/26 07:47:31;;;;;;;357.13;39.83;;;;;;;27.27;51.10;98339.59;4196884;28;20241;-52
2022/08/26 07:49:34;;;;;;;331.95;37.70;;;;;;;27.63;50.33;98341.28;4200587;28;20306;-52
2022/08/26 07:51:36;;;;;;;234.98;23.33;;;;;;;27.84;50.56;98341.81;4170696;28;20664;-52
2022/08/26 07:53:38;;;;;;;160.93;24.10;;;;;;;27.76;49.88;98337.19;4200206;28;20206;-54
2022/08/26 07:55:40;;;;;;;286.38;38.53;;;;;;;27.62;50.66;98334.88;4199961;28;20641;-53
2022/08/26 07:57:42;;;;;;;247.32;28.45;;;;;;;27.84;50.10;98339.81;4167916;28;20330;-53
2022/08/26 07:59:44;;;;;;;241.88;23.80;;;;;;;27.66;50.67;98329.31;4171576;28;20661;-52
2022/08/26 08:01:46;;;;;;;323.27;47.30;;;;;;;27.90;50.09;98335.56;4195053;28;20214;-52
2022/08/26 08:03:50;;;;;;;317.40;41.10;;;;;;;28.41;49.52;98336.28;4172825;28;20290;-52
2022/08/26 08:05:52;;;;;;;356.80;41.70;;;;;;;28.46;49.30;98342.44;4174470;28;20207;-53
2022/08/26 08:07:54;;;;;;;128.85;24.98;;;;;;;28.51;48.13;98333.69;4199609;28;20587;-52
2022/08/26 08:10:19;;;;;;;169.88;18.08;;;;;;;28.14;48.31;98338.13;4192498;28;20720;-51
2022/08/26 08:12:21;;;;;;;307.92;51.47;;;;;;;28.52;48.54;98340.94;4182198;28;20210;-53
2022/08/26 08:14:23;;;;;;;215.50;22.98;;;;;;;28.44;48.68;98333.53;4166834;28;20246;-53
2022/08/26 08:16:27;;;;;;;214.70;29.90;;;;;;;28.48;48.44;98334.44;4173272;28;20203;-52
2022/08/26 08:18:33;;;;;;;186.27;14.80;;;;;;;28.60;47.90;98331.44;4169082;28;20563;-53
2022/08/26 08:20:35;;;;;;;383.60;47.10;;;;;;;28.55;48.34;98331.78;4170395;28;20917;-51
2022/08/26 08:22:37;;;;;;;328.55;50.40;;;;;;;28.71;48.06;98329.66;4195197;28;20206;-54
2022/08/26 08:24:39;;;;;;;292.58;32.42;;;;;;;28.88;47.74;98325.56;4199939;28;20563;-53
2022/08/26 08:26:41;;;;;;;266.92;38.15;;;;;;;29.14;47.10;98323.69;4198233;28;20246;-52
2022/08/26 08:28:43;;;;;;;250.02;43.67;;;;;;;29.28;47.20;98329.56;4199018;28;20232;-52
2022/08/26 08:30:48;;;;;;;309.50;39.78;;;;;;;29.06;46.43;98327.53;4169080;28;20239;-53
2022/08/26 08:32:50;;;;;;;188.05;22.05;;;;;;;29.17;46.35;98334.19;4202815;28;20205;-54
2022/08/26 08:34:52;;;;;;;76.80;20.00;;;;;;;29.07;46.36;98323.56;4165661;28;20215;-51
2022/08/26 08:36:55;;;;;;;373.77;48.47;;;;;;;29.36;46.74;98324.84;4198989;28;20241;-51
2022/08/26 08:38:58;;;;;;;190.63;31.13;;;;;;;29.32;45.82;98323.97;4169561;28;20208;-51
2022/08/26 08:40:59;;;;;;;253.80;43.50;;;;;;;29.52;45.77;98329.16;4167254;28;20282;-51
2022/08/26 08:43:09;;;;;;;161.82;25.38;;;;;;;29.07;45.42;98317.09;4199949;28;20242;-50
2022/08/26 08:45:27;;;;;;;246.65;40.42;;;;;;;29.33;45.24;98317.94;4171455;28;20207;-51
2022/08/26 08:47:35;;;;;;;278.33;45.03;;;;;;;29.73;44.96;98311.78;4164393;28;20255;-54
2022/08/26 08:49:38;;;;;;;424.33;47.53;;;;;;;30.02;44.83;98308.97;4181579;28;20272;-51
2022/08/26 08:51:46;;;;;;;118.07;29.50;;;;;;;29.79;43.97;98315.91;4153159;28;20655;-51
2022/08/26 08:53:51;;;;;;;157.93;27.63;;;;;;;29.65;44.08;98310.84;4202273;28;20197;-50
2022/08/26 08:56:11;;;;;;;337.05;44.35;;;;;;;29.38;44.81;98306.34;4197649;28;20667;-52
2022/08/26 08:58:19;;;;;;;314.17;45.88;;;;;;;29.58;44.07;98307.13;4146471;28;20222;-51
2022/08/26 09:00:23;;;;;;;230.20;26.10;;;;;;;29.62;43.88;98313.59;4204009;28;20221;-50
2022/08/26 09:02:43;;;;;;;144.80;14.32;;;;;;;29.62;43.99;98314.44;4166311;28;20273;-50
2022/08/26 09:05:06;;;;;;;327.55;44.92;;;;;;;30.07;44.06;98311.47;4167786;28;20675;-52
2022/08/26 09:07:22;;;;;;;182.75;30.05;;;;;;;30.24;43.29;98310.91;4171633;28;20261;-50
2022/08/26 09:09:37;;;;;;;406.50;53.83;;;;;;;30.47;43.45;98316.47;4183561;28;20227;-51
2022/08/26 09:11:39;;;;;;;286.70;28.88;;;;;;;30.02;43.09;98308.16;4182356;28;20242;-51
2022/08/26 09:13:45;;;;;;;316.90;25.40;;;;;;;30.04;43.03;98306.59;4168179;28;20306;-54
2022/08/26 09:16:06;;;;;;;319.38;28.45;;;;;;;30.00;43.52;98317.03;4199041;28;20231;-50
2022/08/26 09:18:28;;;;;;;249.88;31.83;;;;;;;29.99;43.31;98308.94;4166783;28;20226;-50
2022/08/26 09:20:47;;;;;;;200.43;36.00;;;;;;;30.80;43.10;98308.81;4160274;28;20408;-50
2022/08/26 09:22:50;;;;;;;283.33;47.42;;;;;;;30.46;41.55;98318.44;4181799;28;20211;-51
2022/08/26 09:24:52;;;;;;;198.82;25.08;;;;;;;30.20;42.38;98309.25;4163884;28;20238;-51
2022/08/26 09:26:56;;;;;;;176.95;22.75;;;;;;;30.73;41.90;98314.41;4174569;28;20231;-50
2022/08/26 09:29:00;;;;;;;130.23;17.27;;;;;;;30.87;41.27;98308.88;4179757;28;20242;-53
2022/08/26 09:31:10;;;;;;;343.80;33.13;;;;;;;31.27;41.14;98302.44;4197907;28;20212;-51
2022/08/26 09:33:16;;;;;;;159.52;24.70;;;;;;;31.59;40.90;98309.97;4166242;28;20207;-51
2022/08/26 09:35:33;;;;;;;344.95;48.20;;;;;;;31.62;40.53;98304.31;4197575;28;20724;-54
2022/08/26 09:37:41;;;;;;;398.38;47.17;;;;;;;31.85;40.52;98295.63;4171386;28;20237;-51